createdAt,value
2023-05-21T00:00:31.962Z,101784.69
2023-05-21T00:03:01.608Z,101782.69
2023-05-21T00:05:29.797Z,101780.50
2023-05-21T00:07:58.069Z,101782.03
2023-05-21T00:10:26.700Z,101778.16
2023-05-21T00:12:54.836Z,101776.81
2023-05-21T00:15:34.629Z,101776.16
2023-05-21T00:18:04.587Z,101773.97
2023-05-21T00:20:33.481Z,101785.66
2023-05-21T00:23:02.896Z,101776.09
2023-05-21T00:25:31.598Z,101780.94
2023-05-21T00:28:00.123Z,101777.78
2023-05-21T00:30:28.525Z,101781.59
2023-05-21T00:32:59.158Z,101781.09
2023-05-21T00:35:28.796Z,101780.75
2023-05-21T00:37:57.468Z,101785.59
2023-05-21T00:40:26.329Z,101782.25
2023-05-21T00:42:57.243Z,101783.06
2023-05-21T00:45:25.781Z,101787.75
2023-05-21T00:47:55.862Z,101783.41
2023-05-21T00:50:24.740Z,101782.88
2023-05-21T00:52:54.659Z,101785.75
2023-05-21T00:55:23.066Z,101787.38
2023-05-21T00:57:51.902Z,101782.38
2023-05-21T01:00:21.703Z,101782.56
2023-05-21T01:02:50.142Z,101783.88
2023-05-21T01:05:18.409Z,101786.00
2023-05-21T01:07:46.792Z,101778.16
2023-05-21T01:10:16.959Z,101778.34
2023-05-21T01:12:46.109Z,101781.84
2023-05-21T01:15:14.881Z,101786.19
2023-05-21T01:17:46.183Z,101786.69
2023-05-21T01:20:18.236Z,101787.06
2023-05-21T01:22:53.705Z,101783.88
2023-05-21T01:25:23.029Z,101790.41
2023-05-21T01:27:51.379Z,101783.75
2023-05-21T01:30:21.862Z,101795.28
2023-05-21T01:32:56.011Z,101789.31
2023-05-21T01:35:30.015Z,101793.13
2023-05-21T01:38:11.406Z,101796.38
2023-05-21T01:40:46.854Z,101795.88
2023-05-21T01:43:16.089Z,101799.41
2023-05-21T01:45:46.433Z,101788.84
2023-05-21T01:48:17.483Z,101794.53
2023-05-21T01:50:47.450Z,101800.50
2023-05-21T01:53:17.458Z,101792.31
2023-05-21T01:55:46.163Z,101790.94
2023-05-21T01:58:15.754Z,101795.28
2023-05-21T02:00:45.593Z,101796.75
2023-05-21T02:03:14.973Z,101791.25
2023-05-21T02:05:43.201Z,101792.88
2023-05-21T02:08:13.010Z,101793.69
2023-05-21T02:10:42.880Z,101790.97
2023-05-21T02:13:11.477Z,101794.00
2023-05-21T02:15:40.304Z,101784.47
2023-05-21T02:18:09.717Z,101786.59
2023-05-21T02:20:37.848Z,101791.44
2023-05-21T02:23:06.216Z,101788.56
2023-05-21T02:25:34.870Z,101788.06
2023-05-21T02:28:05.113Z,101787.53
2023-05-21T02:30:33.364Z,101784.00
2023-05-21T02:33:02.985Z,101782.34
2023-05-21T02:35:32.341Z,101785.00
2023-05-21T02:38:03.268Z,101773.47
2023-05-21T02:40:32.927Z,101781.19
2023-05-21T02:43:01.170Z,101782.56
2023-05-21T02:45:31.458Z,101785.41
2023-05-21T02:48:00.825Z,101780.28
2023-05-21T02:50:29.403Z,101788.31
2023-05-21T02:52:59.734Z,101785.00
2023-05-21T02:55:28.149Z,101785.53
2023-05-21T02:57:56.638Z,101777.84
2023-05-21T03:00:24.765Z,101777.19
2023-05-21T03:02:54.662Z,101780.88
2023-05-21T03:05:23.377Z,101778.25
2023-05-21T03:07:51.501Z,101773.75
2023-05-21T03:10:19.727Z,101776.63
2023-05-21T03:12:48.613Z,101773.97
2023-05-21T03:15:18.304Z,101772.28
2023-05-21T03:17:46.545Z,101766.97
2023-05-21T03:20:20.921Z,101759.75
2023-05-21T03:22:49.972Z,101756.06
2023-05-21T03:25:18.379Z,101751.56
2023-05-21T03:27:46.834Z,101748.53
2023-05-21T03:30:15.297Z,101752.88
2023-05-21T03:32:45.369Z,101745.50
2023-05-21T03:35:13.530Z,101748.81
2023-05-21T03:37:43.110Z,101748.28
2023-05-21T03:40:12.018Z,101744.94
2023-05-21T03:42:40.554Z,101742.59
2023-05-21T03:45:09.597Z,101743.22
2023-05-21T03:47:38.165Z,101748.41
2023-05-21T03:50:07.503Z,101737.81
2023-05-21T03:52:35.730Z,101738.25
2023-05-21T03:55:06.141Z,101744.22
2023-05-21T03:57:34.224Z,101738.78
2023-05-21T04:00:02.781Z,101743.78
2023-05-21T04:02:31.025Z,101740.56
2023-05-21T04:04:59.654Z,101740.59
2023-05-21T04:07:30.129Z,101747.88
2023-05-21T04:09:59.429Z,101747.25
2023-05-21T04:12:28.996Z,101753.59
2023-05-21T04:14:57.130Z,101741.75
2023-05-21T04:17:27.098Z,101746.84
2023-05-21T04:19:55.615Z,101748.66
2023-05-21T04:22:26.882Z,101748.28
2023-05-21T04:24:56.004Z,101747.72
2023-05-21T04:27:24.967Z,101745.50
2023-05-21T04:29:58.116Z,101749.59
2023-05-21T04:32:28.674Z,101743.13
2023-05-21T04:34:56.869Z,101741.19
2023-05-21T04:37:25.726Z,101738.59
2023-05-21T04:39:54.793Z,101750.28
2023-05-21T04:42:24.073Z,101737.75
2023-05-21T04:44:52.301Z,101740.72
2023-05-21T04:47:22.305Z,101737.88
2023-05-21T04:49:50.901Z,101741.63
2023-05-21T04:52:19.063Z,101741.75
2023-05-21T04:54:47.957Z,101741.56
2023-05-21T04:57:19.798Z,101736.25
2023-05-21T04:59:47.939Z,101745.69
2023-05-21T05:02:16.333Z,101737.78
2023-05-21T05:04:46.567Z,101739.97
2023-05-21T05:07:15.129Z,101738.91
2023-05-21T05:09:43.286Z,101734.25
2023-05-21T05:12:15.381Z,101730.41
2023-05-21T05:14:43.464Z,101730.00
2023-05-21T05:17:11.544Z,101734.47
2023-05-21T05:19:40.263Z,101734.28
2023-05-21T05:22:13.317Z,101725.84
2023-05-21T05:24:41.903Z,101729.69
2023-05-21T05:27:09.994Z,101734.88
2023-05-21T05:29:38.250Z,101730.56
2023-05-21T05:32:08.006Z,101736.91
2023-05-21T05:34:36.155Z,101737.38
2023-05-21T05:37:04.634Z,101737.81
2023-05-21T05:39:34.963Z,101733.28
2023-05-21T05:42:03.375Z,101723.97
2023-05-21T05:44:31.750Z,101731.09
2023-05-21T05:46:59.871Z,101727.88
2023-05-21T05:49:28.252Z,101718.84
2023-05-21T05:51:56.826Z,101727.41
2023-05-21T05:54:25.054Z,101721.19
2023-05-21T05:56:54.606Z,101725.16
2023-05-21T05:59:22.790Z,101718.75
2023-05-21T06:01:50.940Z,101720.41
2023-05-21T06:04:19.086Z,101717.50
2023-05-21T06:06:48.384Z,101726.44
2023-05-21T06:09:16.914Z,101718.53
2023-05-21T06:11:45.123Z,101719.16
2023-05-21T06:14:20.702Z,101716.06
2023-05-21T06:16:48.801Z,101709.41
2023-05-21T06:19:17.126Z,101711.06
2023-05-21T06:21:45.707Z,101710.22
2023-05-21T06:24:14.636Z,101712.66
2023-05-21T06:26:42.719Z,101708.03
2023-05-21T06:29:17.421Z,101699.59
2023-05-21T06:31:45.543Z,101705.19
2023-05-21T06:34:14.199Z,101707.19
2023-05-21T06:36:42.464Z,101710.66
2023-05-21T06:39:14.094Z,101710.44
2023-05-21T06:41:42.571Z,101710.63
2023-05-21T06:44:20.862Z,101706.19
2023-05-21T06:46:48.950Z,101708.41
2023-05-21T06:49:17.155Z,101702.94
2023-05-21T06:51:45.309Z,101702.03
2023-05-21T06:54:16.723Z,101709.66
2023-05-21T06:56:44.878Z,101708.63
2023-05-21T06:59:13.308Z,101711.53
2023-05-21T07:01:44.075Z,101706.47
2023-05-21T07:04:12.805Z,101700.59
2023-05-21T07:06:41.257Z,101699.09
2023-05-21T07:09:10.536Z,101697.31
2023-05-21T07:11:39.007Z,101699.50
2023-05-21T07:14:07.570Z,101697.31
2023-05-21T07:16:35.725Z,101697.63
2023-05-21T07:19:05.703Z,101698.16
2023-05-21T07:21:34.023Z,101695.50
2023-05-21T07:24:02.228Z,101693.56
2023-05-21T07:26:30.314Z,101692.41
2023-05-21T07:28:58.476Z,101701.38
2023-05-21T07:31:27.194Z,101705.31
2023-05-21T07:33:55.672Z,101695.41
2023-05-21T07:36:27.598Z,101692.16
2023-05-21T07:38:55.993Z,101694.81
2023-05-21T07:41:24.200Z,101685.66
2023-05-21T07:43:52.684Z,101688.75
2023-05-21T07:46:20.928Z,101688.91
2023-05-21T07:48:50.068Z,101679.75
2023-05-21T07:51:18.727Z,101680.00
2023-05-21T07:53:48.305Z,101673.06
2023-05-21T07:56:16.542Z,101677.06
2023-05-21T07:58:46.023Z,101677.31
2023-05-21T08:01:14.409Z,101673.44
2023-05-21T08:03:42.940Z,101670.72
2023-05-21T08:06:12.150Z,101670.47
2023-05-21T08:08:40.268Z,101670.72
2023-05-21T08:11:10.346Z,101677.56
2023-05-21T08:13:38.517Z,101674.75
2023-05-21T08:16:07.409Z,101674.41
2023-05-21T08:18:35.537Z,101676.22
2023-05-21T08:21:04.569Z,101675.88
2023-05-21T08:23:32.655Z,101670.31
2023-05-21T08:26:00.889Z,101665.00
2023-05-21T08:28:31.354Z,101669.72
2023-05-21T08:30:59.928Z,101670.66
2023-05-21T08:33:28.971Z,101671.97
2023-05-21T08:36:01.723Z,101669.94
2023-05-21T08:38:31.322Z,101664.84
2023-05-21T08:41:01.556Z,101672.34
2023-05-21T08:43:31.272Z,101660.97
2023-05-21T08:46:07.533Z,101662.63
2023-05-21T08:48:37.905Z,101661.81
2023-05-21T08:51:07.366Z,101669.25
2023-05-21T08:53:36.049Z,101668.28
2023-05-21T08:56:04.839Z,101666.78
2023-05-21T08:58:35.660Z,101667.03
2023-05-21T09:01:06.255Z,101675.56
2023-05-21T09:03:34.837Z,101667.25
2023-05-21T09:06:03.404Z,101667.06
2023-05-21T09:08:37.107Z,101674.41
2023-05-21T09:11:05.878Z,101664.34
2023-05-21T09:13:38.972Z,101674.94
2023-05-21T09:16:09.308Z,101680.81
2023-05-21T09:18:38.318Z,101674.31
2023-05-21T09:21:27.784Z,101667.97
2023-05-21T09:23:57.788Z,101667.28
2023-05-21T09:26:26.740Z,101672.28
2023-05-21T09:29:01.162Z,101670.44
2023-05-21T09:31:31.030Z,101667.53
2023-05-21T09:33:59.433Z,101667.16
2023-05-21T09:36:29.572Z,101661.56
2023-05-21T09:39:00.395Z,101663.81
2023-05-21T09:41:36.301Z,101663.69
2023-05-21T09:44:06.375Z,101663.97
2023-05-21T09:46:41.990Z,101662.94
2023-05-21T09:49:24.922Z,101660.81
2023-05-21T09:51:58.169Z,101654.66
2023-05-21T09:54:32.973Z,101664.06
2023-05-21T09:57:03.104Z,101652.28
2023-05-21T09:59:39.819Z,101644.88
2023-05-21T10:02:19.149Z,101644.63
2023-05-21T10:04:50.142Z,101645.47
2023-05-21T10:07:21.879Z,101638.66
2023-05-21T10:09:51.284Z,101647.19
2023-05-21T10:12:20.951Z,101640.78
2023-05-21T10:14:56.507Z,101634.88
2023-05-21T10:17:26.699Z,101639.25
2023-05-21T10:19:57.724Z,101639.84
2023-05-21T10:22:26.787Z,101630.03
2023-05-21T10:24:55.672Z,101628.78
2023-05-21T10:27:24.395Z,101630.41
2023-05-21T10:29:58.306Z,101625.91
2023-05-21T10:32:28.377Z,101627.31
2023-05-21T10:35:00.782Z,101630.75
2023-05-21T10:37:30.708Z,101617.94
2023-05-21T10:39:58.930Z,101625.16
2023-05-21T10:43:03.860Z,101621.22
2023-05-21T10:45:46.527Z,101617.22
2023-05-21T10:48:29.665Z,101611.69
2023-05-21T10:51:20.390Z,101605.34
2023-05-21T10:54:28.744Z,101604.44
2023-05-21T10:57:08.095Z,101599.56
2023-05-21T10:59:42.665Z,101598.38
2023-05-21T11:02:15.059Z,101597.28
2023-05-21T11:04:45.771Z,101591.63
2023-05-21T11:07:14.226Z,101593.97
2023-05-21T11:09:42.303Z,101588.59
2023-05-21T11:12:13.091Z,101589.00
2023-05-21T11:14:43.638Z,101599.88
2023-05-21T11:17:15.247Z,101582.72
2023-05-21T11:19:44.580Z,101588.00
2023-05-21T11:22:23.604Z,101590.91
2023-05-21T11:24:52.002Z,101578.38
2023-05-21T11:27:34.708Z,101580.34
2023-05-21T11:30:06.191Z,101581.56
2023-05-21T11:32:38.894Z,101580.81
2023-05-21T11:35:09.137Z,101578.09
2023-05-21T11:37:40.776Z,101575.91
2023-05-21T11:40:19.941Z,101586.72
2023-05-21T11:42:52.093Z,101577.81
2023-05-21T11:45:21.110Z,101573.44
2023-05-21T11:47:52.430Z,101567.59
2023-05-21T11:50:20.973Z,101571.97
2023-05-21T11:52:51.122Z,101563.19
2023-05-21T11:55:23.684Z,101563.06
2023-05-21T11:57:55.263Z,101554.28
2023-05-21T12:00:23.823Z,101555.78
2023-05-21T12:02:56.975Z,101560.28
2023-05-21T12:05:27.287Z,101564.72
2023-05-21T12:07:56.781Z,101560.59
2023-05-21T12:10:25.085Z,101557.56
2023-05-21T12:12:57.081Z,101567.88
2023-05-21T12:15:27.795Z,101557.78
2023-05-21T12:17:58.159Z,101549.41
2023-05-21T12:20:28.755Z,101540.69
2023-05-21T12:23:00.861Z,101547.91
2023-05-21T12:25:30.172Z,101546.31
2023-05-21T12:27:59.024Z,101548.00
2023-05-21T12:30:27.701Z,101547.72
2023-05-21T12:33:02.591Z,101548.50
2023-05-21T12:35:33.032Z,101544.63
2023-05-21T12:38:04.124Z,101538.25
2023-05-21T12:40:40.617Z,101536.78
2023-05-21T12:43:09.917Z,101540.53
2023-05-21T12:45:41.257Z,101538.63
2023-05-21T12:48:12.178Z,101531.09
2023-05-21T12:50:42.270Z,101534.47
2023-05-21T12:53:12.646Z,101523.84
2023-05-21T12:55:41.346Z,101532.06
2023-05-21T12:58:09.638Z,101529.34
2023-05-21T13:00:38.381Z,101520.28
2023-05-21T13:03:16.762Z,101521.41
2023-05-21T13:05:45.752Z,101510.47
2023-05-21T13:08:15.878Z,101519.81
2023-05-21T13:10:44.172Z,101524.22
2023-05-21T13:13:12.538Z,101523.66
2023-05-21T13:15:40.724Z,101519.53
2023-05-21T13:18:13.505Z,101522.00
2023-05-21T13:20:41.660Z,101522.84
2023-05-21T13:23:11.915Z,101517.34
2023-05-21T13:25:40.220Z,101514.56
2023-05-21T13:28:18.088Z,101517.06
2023-05-21T13:30:46.616Z,101519.00
2023-05-21T13:33:17.603Z,101515.41
2023-05-21T13:35:51.160Z,101500.56
2023-05-21T13:38:19.294Z,101504.69
2023-05-21T13:40:47.427Z,101498.34
2023-05-21T13:43:16.709Z,101505.16
2023-05-21T13:45:45.156Z,101501.31
2023-05-21T13:48:14.441Z,101507.88
2023-05-21T13:50:45.168Z,101495.78
2023-05-21T13:53:13.493Z,101494.38
2023-05-21T13:55:41.589Z,101488.88
2023-05-21T13:58:09.899Z,101494.59
2023-05-21T14:00:38.276Z,101493.75
2023-05-21T14:03:07.825Z,101481.19
2023-05-21T14:05:36.459Z,101480.66
2023-05-21T14:08:06.825Z,101483.13
2023-05-21T14:10:35.201Z,101488.69
2023-05-21T14:13:15.407Z,101489.25
2023-05-21T14:15:46.906Z,101485.69
2023-05-21T14:18:15.826Z,101477.69
2023-05-21T14:20:43.940Z,101479.59
2023-05-21T14:23:13.496Z,101470.50
2023-05-21T14:25:43.089Z,101473.81
2023-05-21T14:28:11.737Z,101468.34
2023-05-21T14:30:39.963Z,101469.16
2023-05-21T14:33:08.605Z,101465.59
2023-05-21T14:35:39.702Z,101465.81
2023-05-21T14:38:07.832Z,101469.09
2023-05-21T14:40:39.868Z,101475.91
2023-05-21T14:43:08.467Z,101467.09
2023-05-21T14:45:37.251Z,101465.22
2023-05-21T14:48:08.784Z,101467.38
2023-05-21T14:50:37.519Z,101461.81
2023-05-21T14:53:06.682Z,101465.19
2023-05-21T14:55:36.858Z,101457.56
2023-05-21T14:58:09.108Z,101457.78
2023-05-21T15:00:38.422Z,101455.38
2023-05-21T15:03:07.744Z,101459.72
2023-05-21T15:05:36.395Z,101455.09
2023-05-21T15:08:06.180Z,101449.06
2023-05-21T15:10:34.362Z,101444.94
2023-05-21T15:13:03.343Z,101441.28
2023-05-21T15:15:33.255Z,101454.41
2023-05-21T15:18:05.296Z,101450.22
2023-05-21T15:20:33.588Z,101454.06
2023-05-21T15:25:34.560Z,101451.16
2023-05-21T15:28:02.714Z,101445.63
2023-05-21T15:30:32.772Z,101444.72
2023-05-21T15:33:01.450Z,101436.13
2023-05-21T15:35:31.312Z,101441.28
2023-05-21T15:37:59.586Z,101434.59
2023-05-21T15:40:28.132Z,101427.47
2023-05-21T15:42:56.325Z,101422.78
2023-05-21T15:45:26.104Z,101423.63
2023-05-21T15:47:55.729Z,101416.03
2023-05-21T15:50:24.721Z,101428.44
2023-05-21T15:52:55.336Z,101417.06
2023-05-21T15:55:23.614Z,101425.78
2023-05-21T15:57:51.700Z,101422.31
2023-05-21T16:00:19.825Z,101426.19
2023-05-21T16:02:48.127Z,101412.38
2023-05-21T16:05:17.784Z,101414.44
2023-05-21T16:07:46.297Z,101422.06
2023-05-21T16:10:14.431Z,101410.47
2023-05-21T16:12:42.676Z,101418.56
2023-05-21T16:15:11.194Z,101410.25
2023-05-21T16:17:39.426Z,101410.81
2023-05-21T16:20:08.989Z,101412.31
2023-05-21T16:22:38.990Z,101409.56
2023-05-21T16:25:08.637Z,101406.44
2023-05-21T16:27:37.460Z,101403.09
2023-05-21T16:30:07.560Z,101406.38
2023-05-21T16:32:35.808Z,101401.41
2023-05-21T16:35:06.332Z,101408.44
2023-05-21T16:37:35.837Z,101407.25
2023-05-21T16:40:06.676Z,101412.94
2023-05-21T16:42:34.745Z,101399.50
2023-05-21T16:45:02.944Z,101408.03
2023-05-21T16:47:31.922Z,101396.44
2023-05-21T16:50:00.908Z,101396.38
2023-05-21T16:52:29.374Z,101396.84
2023-05-21T16:54:57.455Z,101397.41
2023-05-21T16:57:27.044Z,101401.38
2023-05-21T16:59:55.976Z,101395.56
2023-05-21T17:02:24.982Z,101392.28
2023-05-21T17:04:55.248Z,101386.88
2023-05-21T17:07:23.452Z,101400.59
2023-05-21T17:09:51.628Z,101386.00
2023-05-21T17:12:19.741Z,101393.00
2023-05-21T17:14:52.456Z,101388.41
2023-05-21T17:17:20.542Z,101386.16
2023-05-21T17:19:48.619Z,101390.53
2023-05-21T17:22:16.775Z,101390.13
2023-05-21T17:24:44.831Z,101394.03
2023-05-21T17:27:13.350Z,101395.44
2023-05-21T17:29:42.733Z,101389.69
2023-05-21T17:32:13.396Z,101395.19
2023-05-21T17:34:43.086Z,101390.69
2023-05-21T17:37:11.254Z,101403.31
2023-05-21T17:39:39.597Z,101400.06
2023-05-21T17:42:07.781Z,101395.16
2023-05-21T17:44:39.079Z,101396.84
2023-05-21T17:47:08.893Z,101405.56
2023-05-21T17:49:41.747Z,101397.78
2023-05-21T17:52:09.898Z,101398.47
2023-05-21T17:54:38.208Z,101405.41
2023-05-21T17:57:06.747Z,101411.13
2023-05-21T17:59:35.009Z,101413.19
2023-05-21T18:02:03.100Z,101415.91
2023-05-21T18:04:31.786Z,101407.16
2023-05-21T18:07:01.937Z,101409.81
2023-05-21T18:09:30.059Z,101405.59
2023-05-21T18:11:58.412Z,101410.25
2023-05-21T18:14:28.037Z,101413.44
2023-05-21T18:16:56.583Z,101415.50
2023-05-21T18:19:24.765Z,101414.97
2023-05-21T18:21:54.079Z,101419.47
2023-05-21T18:24:24.143Z,101421.50
2023-05-21T18:26:52.255Z,101421.66
2023-05-21T18:29:20.459Z,101425.84
2023-05-21T18:31:48.621Z,101421.19
2023-05-21T18:34:17.538Z,101427.03
2023-05-21T18:36:45.855Z,101430.06
2023-05-21T18:39:13.934Z,101431.53
2023-05-21T18:41:43.552Z,101432.88
2023-05-21T18:44:12.075Z,101443.69
2023-05-21T18:46:40.302Z,101429.00
2023-05-21T18:49:08.459Z,101439.50
2023-05-21T18:51:36.949Z,101440.63
2023-05-21T18:54:05.647Z,101446.66
2023-05-21T18:56:33.790Z,101441.25
2023-05-21T18:59:03.544Z,101442.66
2023-05-21T19:01:31.818Z,101450.59
2023-05-21T19:04:00.017Z,101456.41
2023-05-21T19:06:28.324Z,101449.59
2023-05-21T19:08:56.960Z,101450.63
2023-05-21T19:11:27.619Z,101456.09
2023-05-21T19:13:55.897Z,101453.06
2023-05-21T19:16:25.953Z,101449.50
2023-05-21T19:18:54.536Z,101459.06
2023-05-21T19:21:22.909Z,101453.84
2023-05-21T19:23:53.715Z,101459.84
2023-05-21T19:26:23.036Z,101456.81
2023-05-21T19:28:53.845Z,101453.44
2023-05-21T19:31:22.826Z,101461.53
2023-05-21T19:33:52.881Z,101462.59
2023-05-21T19:36:22.297Z,101465.81
2023-05-21T19:38:52.217Z,101455.56
2023-05-21T19:41:21.697Z,101462.44
2023-05-21T19:43:49.846Z,101469.75
2023-05-21T19:46:20.444Z,101462.66
2023-05-21T19:48:48.939Z,101467.59
2023-05-21T19:51:19.004Z,101469.44
2023-05-21T19:53:47.165Z,101470.03
2023-05-21T19:56:16.073Z,101467.06
2023-05-21T19:58:47.216Z,101472.25
2023-05-21T20:01:17.572Z,101470.31
2023-05-21T20:03:46.545Z,101472.75
2023-05-21T20:06:19.293Z,101478.28
2023-05-21T20:08:49.222Z,101476.72
2023-05-21T20:11:23.508Z,101484.13
2023-05-21T20:13:53.177Z,101479.59
2023-05-21T20:16:21.617Z,101478.03
2023-05-21T20:18:50.404Z,101479.13
2023-05-21T20:21:24.199Z,101476.53
2023-05-21T20:23:54.758Z,101479.06
2023-05-21T20:26:23.258Z,101478.34
2023-05-21T20:28:51.342Z,101483.81
2023-05-21T20:31:20.347Z,101491.81
2023-05-21T20:33:50.763Z,101487.44
2023-05-21T20:36:21.373Z,101487.88
2023-05-21T20:38:49.609Z,101487.06
2023-05-21T20:41:20.136Z,101486.69
2023-05-21T20:43:48.382Z,101480.44
2023-05-21T20:46:18.522Z,101494.81
2023-05-21T20:48:47.432Z,101491.75
2023-05-21T20:51:16.213Z,101489.25
2023-05-21T20:53:44.520Z,101495.94
2023-05-21T20:56:21.766Z,101496.38
2023-05-21T20:58:56.546Z,101497.88
2023-05-21T21:01:25.312Z,101495.63
2023-05-21T21:03:53.872Z,101489.00
2023-05-21T21:06:22.659Z,101480.47
2023-05-21T21:08:50.741Z,101490.56
2023-05-21T21:11:19.448Z,101486.03
2023-05-21T21:13:48.001Z,101490.47
2023-05-21T21:16:18.223Z,101491.53
2023-05-21T21:18:47.298Z,101493.47
2023-05-21T21:21:16.215Z,101489.75
2023-05-21T21:23:44.347Z,101488.16
2023-05-21T21:26:12.527Z,101493.63
2023-05-21T21:28:40.751Z,101492.84
2023-05-21T21:31:09.607Z,101494.38
2023-05-21T21:33:39.583Z,101496.06
2023-05-21T21:36:12.206Z,101494.84
2023-05-21T21:38:40.319Z,101497.59
2023-05-21T21:41:09.601Z,101492.44
2023-05-21T21:43:38.096Z,101487.06
2023-05-21T21:46:26.935Z,101491.88
2023-05-21T21:48:56.494Z,101490.25
2023-05-21T21:51:24.700Z,101491.94
2023-05-21T21:53:52.884Z,101493.00
2023-05-21T21:56:22.254Z,101485.34
2023-05-21T21:58:50.349Z,101494.28
2023-05-21T22:01:19.431Z,101494.53
2023-05-21T22:03:48.844Z,101501.00
2023-05-21T22:06:19.271Z,101494.16
2023-05-21T22:08:47.383Z,101508.28
2023-05-21T22:11:17.097Z,101499.81
2023-05-21T22:13:45.493Z,101502.09
2023-05-21T22:16:13.676Z,101502.50
2023-05-21T22:18:42.104Z,101496.47
2023-05-21T22:21:14.441Z,101494.22
2023-05-21T22:23:45.382Z,101491.94
2023-05-21T22:26:14.001Z,101493.38
2023-05-21T22:28:42.541Z,101495.06
2023-05-21T22:31:11.664Z,101504.81
2023-05-21T22:33:40.894Z,101496.31
2023-05-21T22:36:11.521Z,101499.22
2023-05-21T22:38:39.739Z,101494.66
2023-05-21T22:41:10.884Z,101489.47
2023-05-21T22:43:39.043Z,101488.41
2023-05-21T22:46:07.715Z,101484.06
2023-05-21T22:48:37.424Z,101485.69
2023-05-21T22:51:06.189Z,101472.03
2023-05-21T22:53:35.699Z,101466.19
2023-05-21T22:56:04.240Z,101473.03
2023-05-21T22:58:34.114Z,101465.34
2023-05-21T23:01:02.973Z,101476.78
2023-05-21T23:03:31.699Z,101468.25
2023-05-21T23:05:59.806Z,101470.53
2023-05-21T23:08:28.342Z,101474.28
2023-05-21T23:10:56.737Z,101466.78
2023-05-21T23:13:25.245Z,101471.16
2023-05-21T23:15:58.849Z,101460.13
2023-05-21T23:18:27.097Z,101469.25
2023-05-21T23:20:56.538Z,101470.88
2023-05-21T23:23:24.807Z,101466.31
2023-05-21T23:25:57.453Z,101459.88
2023-05-21T23:28:25.846Z,101466.69
2023-05-21T23:30:55.489Z,101474.56
2023-05-21T23:33:23.914Z,101463.75
2023-05-21T23:35:53.460Z,101465.41
2023-05-21T23:38:22.021Z,101468.50
2023-05-21T23:40:51.168Z,101459.34
2023-05-21T23:43:19.322Z,101452.66
2023-05-21T23:45:47.496Z,101461.16
2023-05-21T23:48:17.100Z,101458.44
2023-05-21T23:50:45.745Z,101464.44
2023-05-21T23:53:14.294Z,101464.81
2023-05-21T23:55:42.802Z,101459.44
2023-05-21T23:58:10.991Z,101460.47
